Time;durP1;ratioP1;P1;durP2;ratioP2;P2;SDS_P1;SDS_P2;PMS_P1;PMS_P2;Temp;Humidity;BMP_temperature;BMP_pressure;BME280_temperature;BME280_humidity;BME280_pressure;Samples;Min_cycle;Max_cycle;Signal;HPM_P1;HPM_P2
2022/11/27 00:01:37;;;;;;;3.75;1.58;;;19.70;63.60;;;;;;5053012;28;20111;-57
2022/11/27 00:04:04;;;;;;;4.57;1.42;;;19.70;63.60;;;;;;5053669;28;20450;-57
2022/11/27 00:06:29;;;;;;;4.53;1.77;;;19.70;63.60;;;;;;5053178;28;20366;-56
2022/11/27 00:08:59;;;;;;;4.05;1.27;;;19.70;63.60;;;;;;5053113;28;20047;-57
2022/11/27 00:11:25;;;;;;;5.03;1.30;;;19.70;63.60;;;;;;5053532;28;20492;-57
2022/11/27 00:13:51;;;;;;;4.05;1.60;;;19.60;63.50;;;;;;5053024;28;20392;-57
2022/11/27 00:16:17;;;;;;;6.22;1.50;;;19.60;63.50;;;;;;5052567;28;20036;-57
2022/11/27 00:18:42;;;;;;;5.97;1.70;;;19.60;63.50;;;;;;5053290;28;20407;-57
2022/11/27 00:21:10;;;;;;;4.25;1.40;;;19.60;63.50;;;;;;5053640;28;20059;-56
2022/11/27 00:23:36;;;;;;;3.75;1.33;;;19.60;63.50;;;;;;5052701;28;20120;-57
2022/11/27 00:26:02;;;;;;;3.67;1.35;;;19.60;63.50;;;;;;5053268;28;20076;-57
2022/11/27 00:28:28;;;;;;;2.40;1.08;;;19.60;63.50;;;;;;5051700;28;20044;-57
2022/11/27 00:30:58;;;;;;;3.17;1.10;;;19.60;63.40;;;;;;5052403;28;20052;-57
2022/11/27 00:33:23;;;;;;;5.43;1.50;;;19.50;63.40;;;;;;5053497;28;20045;-57
2022/11/27 00:35:49;;;;;;;4.15;1.40;;;19.50;63.40;;;;;;5053131;28;20051;-57
2022/11/27 00:38:14;;;;;;;3.63;1.17;;;19.50;63.30;;;;;;5052205;28;20045;-57
2022/11/27 00:40:40;;;;;;;4.82;1.80;;;19.50;63.30;;;;;;5052763;28;20477;-57
2022/11/27 00:43:05;;;;;;;5.10;1.63;;;19.50;63.30;;;;;;5052505;28;20053;-56
2022/11/27 00:45:31;;;;;;;3.85;1.33;;;19.50;63.30;;;;;;5052218;28;20488;-56
2022/11/27 00:47:57;;;;;;;4.95;1.35;;;19.50;63.30;;;;;;5051587;28;20045;-57
2022/11/27 00:50:22;;;;;;;3.80;1.38;;;19.50;63.20;;;;;;5052257;28;20041;-57
2022/11/27 00:52:48;;;;;;;4.40;1.48;;;19.50;63.20;;;;;;5052768;28;20057;-57
2022/11/27 00:55:13;;;;;;;4.43;1.45;;;19.50;63.10;;;;;;5053102;28;20069;-57
2022/11/27 00:57:39;;;;;;;4.03;1.30;;;19.40;63.10;;;;;;5051946;28;20838;-56
2022/11/27 01:00:05;;;;;;;4.38;1.42;;;19.50;63.10;;;;;;5052563;28;20073;-56
2022/11/27 01:02:31;;;;;;;4.78;1.58;;;19.40;63.00;;;;;;5052226;28;20404;-56
2022/11/27 01:04:56;;;;;;;3.55;1.70;;;19.40;63.00;;;;;;5051903;28;20037;-56
2022/11/27 01:07:22;;;;;;;3.28;1.50;;;19.40;63.00;;;;;;5052523;28;20044;-56
2022/11/27 01:09:47;;;;;;;3.60;1.42;;;19.40;63.00;;;;;;5052526;28;20045;-56
2022/11/27 01:12:13;;;;;;;3.33;1.40;;;19.40;63.00;;;;;;5052009;28;20056;-56
2022/11/27 01:14:38;;;;;;;5.57;1.60;;;19.40;63.00;;;;;;5052333;28;20056;-56
2022/11/27 01:17:04;;;;;;;3.47;1.50;;;19.40;62.90;;;;;;5052294;28;20044;-56
2022/11/27 01:19:29;;;;;;;3.22;1.55;;;19.40;62.90;;;;;;5051530;28;20063;-57
2022/11/27 01:21:55;;;;;;;4.22;1.63;;;19.40;62.90;;;;;;5052610;28;20129;-56
2022/11/27 01:24:20;;;;;;;3.80;1.50;;;19.40;62.90;;;;;;5052702;28;20064;-57
2022/11/27 01:26:46;;;;;;;3.75;1.20;;;19.40;62.90;;;;;;5051462;28;20053;-56
2022/11/27 01:29:12;;;;;;;3.40;1.20;;;19.40;62.90;;;;;;5052019;28;20041;-56
2022/11/27 01:31:38;;;;;;;3.53;1.52;;;19.40;62.90;;;;;;5052172;28;20063;-56
2022/11/27 01:34:05;;;;;;;2.85;1.38;;;19.30;62.80;;;;;;5050486;28;20477;-56
2022/11/27 01:36:31;;;;;;;3.85;1.45;;;19.30;62.80;;;;;;5052040;28;20087;-56
2022/11/27 01:38:57;;;;;;;4.38;1.70;;;19.30;62.80;;;;;;5052174;28;20080;-56
2022/11/27 01:41:26;;;;;;;5.38;1.38;;;19.30;62.80;;;;;;5051537;28;20112;-57
2022/11/27 01:44:23;;;;;;;3.28;1.50;;;19.30;62.80;;;;;;5051924;28;20052;-56
2022/11/27 01:47:04;;;;;;;4.18;1.42;;;19.30;62.70;;;;;;5050760;28;20092;-57
2022/11/27 01:49:32;;;;;;;5.05;1.80;;;19.30;62.80;;;;;;5050572;28;20051;-57
2022/11/27 01:51:59;;;;;;;;;;;19.30;62.70;;;;;;5051232;28;20041;-56
2022/11/27 01:54:52;;;;;;;3.90;1.25;;;19.20;62.60;;;;;;5050082;28;19921;-56
2022/11/27 01:57:21;;;;;;;4.40;1.67;;;19.20;62.70;;;;;;5052180;28;20056;-56
2022/11/27 01:59:47;;;;;;;4.35;1.42;;;19.20;62.70;;;;;;5034107;28;20116;-56
2022/11/27 02:02:13;;;;;;;3.20;1.25;;;19.20;62.70;;;;;;5033389;28;20137;-56
2022/11/27 02:04:38;;;;;;;4.50;1.30;;;19.20;62.60;;;;;;5051828;28;20472;-56
2022/11/27 02:07:04;;;;;;;3.90;1.25;;;19.20;62.60;;;;;;5052005;28;20049;-56
2022/11/27 02:09:29;;;;;;;4.00;1.33;;;19.20;62.60;;;;;;5050981;28;20048;-56
2022/11/27 02:12:06;;;;;;;4.40;1.52;;;19.20;62.50;;;;;;5051030;28;20053;-56
2022/11/27 02:14:46;;;;;;;4.80;1.80;;;19.20;62.50;;;;;;5034967;28;20415;-56
2022/11/27 02:17:42;;;;;;;3.97;1.27;;;19.20;62.50;;;;;;5035479;28;20057;-56
2022/11/27 02:20:26;;;;;;;3.28;1.30;;;19.20;62.40;;;;;;5053920;28;20041;-56
2022/11/27 02:23:12;;;;;;;4.22;1.40;;;19.20;62.40;;;;;;5055164;28;20056;-56
2022/11/27 02:25:51;;;;;;;3.38;1.50;;;19.20;62.50;;;;;;5054323;28;20519;-56
2022/11/27 02:28:47;;;;;;;2.92;1.13;;;19.10;62.40;;;;;;5038652;28;20045;-56
2022/11/27 02:31:16;;;;;;;4.38;1.30;;;19.10;62.30;;;;;;5055852;28;20041;-56
2022/11/27 02:33:44;;;;;;;5.07;1.67;;;19.10;62.40;;;;;;5037732;28;20099;-56
2022/11/27 02:36:13;;;;;;;3.92;1.10;;;19.10;62.40;;;;;;5037248;28;20056;-56
2022/11/27 02:38:40;;;;;;;3.08;1.42;;;19.10;62.40;;;;;;5054081;28;20049;-56
2022/11/27 02:41:19;;;;;;;4.15;1.48;;;19.10;62.40;;;;;;5037885;28;20055;-56
2022/11/27 02:43:45;;;;;;;;;;;19.10;62.30;;;;;;5053323;28;20136;-56
2022/11/27 02:46:10;;;;;;;4.45;1.65;;;19.10;62.20;;;;;;5054044;28;19971;-56
2022/11/27 02:48:54;;;;;;;3.65;1.30;;;19.10;62.40;;;;;;5053680;28;20099;-56
2022/11/27 02:51:22;;;;;;;3.72;1.60;;;19.10;62.20;;;;;;5053529;28;20480;-56
2022/11/27 02:53:53;;;;;;;2.40;1.10;;;19.00;62.20;;;;;;5037661;28;20060;-56
2022/11/27 02:56:20;;;;;;;3.65;1.30;;;19.00;62.20;;;;;;5055493;28;20045;-56
2022/11/27 02:58:46;;;;;;;3.20;1.23;;;19.00;62.20;;;;;;5019942;28;20492;-56
2022/11/27 03:01:12;;;;;;;3.80;1.38;;;19.00;62.20;;;;;;5037399;28;20048;-56
2022/11/27 03:03:45;;;;;;;4.50;1.40;;;19.00;62.10;;;;;;5037027;28;20041;-56
2022/11/27 03:06:13;;;;;;;2.80;1.30;;;19.00;62.10;;;;;;5036542;28;20090;-56
2022/11/27 03:08:49;;;;;;;3.30;1.33;;;19.00;62.10;;;;;;5053503;28;20049;-56
2022/11/27 03:11:14;;;;;;;4.40;1.33;;;19.00;62.00;;;;;;5052823;28;20040;-56
2022/11/27 03:13:45;;;;;;;5.57;2.17;;;19.00;62.10;;;;;;5054511;28;20045;-56
2022/11/27 03:16:16;;;;;;;3.15;1.50;;;19.00;62.00;;;;;;5054724;28;20037;-56
2022/11/27 03:18:49;;;;;;;3.58;1.30;;;19.00;62.00;;;;;;5052583;28;20049;-56
2022/11/27 03:21:41;;;;;;;4.03;1.20;;;19.00;62.00;;;;;;5053813;28;20040;-56
2022/11/27 03:24:07;;;;;;;3.58;1.50;;;19.00;61.90;;;;;;5038979;28;20071;-56
2022/11/27 03:26:32;;;;;;;3.28;1.35;;;19.00;62.00;;;;;;5035668;28;20041;-57
2022/11/27 03:28:58;;;;;;;4.13;1.50;;;19.00;62.00;;;;;;5053599;28;20102;-56
2022/11/27 03:31:25;;;;;;;4.32;1.48;;;19.00;62.00;;;;;;5053214;28;20041;-56
2022/11/27 03:33:50;;;;;;;3.67;1.40;;;19.00;61.90;;;;;;5053358;28;20067;-56
2022/11/27 03:36:17;;;;;;;2.20;1.10;;;19.00;61.90;;;;;;5053059;28;20044;-56
2022/11/27 03:38:43;;;;;;;3.00;1.17;;;19.00;61.90;;;;;;5054226;28;20041;-56
2022/11/27 03:41:25;;;;;;;3.55;1.35;;;19.00;61.80;;;;;;5052526;28;20055;-56
2022/11/27 03:44:12;;;;;;;3.72;1.40;;;19.00;61.90;;;;;;5038006;28;20049;-56
2022/11/27 03:46:48;;;;;;;3.25;1.10;;;19.00;61.80;;;;;;5053205;28;20524;-56
2022/11/27 03:49:40;;;;;;;3.85;1.48;;;19.00;61.70;;;;;;5037894;28;20076;-56
2022/11/27 03:52:24;;;;;;;3.30;1.30;;;19.00;61.60;;;;;;5053104;28;20053;-56
2022/11/27 03:55:24;;;;;;;3.70;1.40;;;19.00;61.70;;;;;;5053141;28;20041;-56
2022/11/27 03:58:08;;;;;;;3.13;1.35;;;19.00;61.60;;;;;;5012919;28;20085;-56
2022/11/27 04:00:38;;;;;;;4.75;1.13;;;19.10;61.60;;;;;;5035210;28;20055;-56
2022/11/27 04:03:04;;;;;;;4.47;1.65;;;19.10;61.50;;;;;;5036485;28;20496;-56
2022/11/27 04:05:29;;;;;;;3.60;1.23;;;19.10;61.50;;;;;;5052097;28;20044;-56
2022/11/27 04:07:55;;;;;;;2.63;1.20;;;19.10;61.50;;;;;;5052750;28;20052;-56
2022/11/27 04:10:21;;;;;;;5.03;1.40;;;19.10;61.50;;;;;;5052769;28;20044;-56
2022/11/27 04:12:46;;;;;;;3.08;1.40;;;19.10;61.50;;;;;;5053290;28;20111;-56
2022/11/27 04:15:12;;;;;;;2.28;1.02;;;19.10;61.50;;;;;;5053155;28;20045;-56
2022/11/27 04:17:37;;;;;;;4.35;1.30;;;19.20;61.40;;;;;;5052213;28;20052;-56
2022/11/27 04:20:04;;;;;;;3.22;1.20;;;19.10;61.40;;;;;;5053385;28;20508;-56
2022/11/27 04:22:29;;;;;;;3.28;1.13;;;19.20;61.40;;;;;;5052418;28;20137;-56
2022/11/27 04:24:55;;;;;;;4.85;1.35;;;19.20;61.30;;;;;;5053635;28;20051;-56
2022/11/27 04:27:20;;;;;;;2.50;1.17;;;19.20;61.30;;;;;;5053523;28;20075;-56
2022/11/27 04:29:46;;;;;;;2.33;1.10;;;19.20;61.20;;;;;;5052483;28;20886;-56
2022/11/27 04:32:11;;;;;;;3.08;1.30;;;19.20;61.20;;;;;;5053619;28;20041;-56
2022/11/27 04:34:37;;;;;;;3.05;1.15;;;19.30;61.20;;;;;;5052685;28;20040;-56
2022/11/27 04:37:02;;;;;;;3.08;1.65;;;19.30;61.20;;;;;;5052392;28;20563;-56
2022/11/27 04:39:28;;;;;;;4.05;1.13;;;19.30;61.20;;;;;;5053062;28;20128;-56
2022/11/27 04:41:53;;;;;;;3.40;1.30;;;19.30;61.20;;;;;;5051324;28;20136;-56
2022/11/27 04:44:21;;;;;;;2.30;1.05;;;19.30;61.10;;;;;;5052572;28;20150;-56
2022/11/27 04:46:47;;;;;;;4.90;1.27;;;19.30;61.10;;;;;;5052936;28;20040;-56
2022/11/27 04:49:13;;;;;;;4.63;1.35;;;19.40;61.10;;;;;;5052945;28;20049;-56
2022/11/27 04:51:38;;;;;;;3.92;1.20;;;19.30;61.60;;;;;;5052228;28;20111;-56
2022/11/27 04:54:04;;;;;;;1.73;0.95;;;19.30;61.00;;;;;;5052867;28;20402;-56
2022/11/27 04:56:29;;;;;;;3.58;1.40;;;19.40;61.00;;;;;;5052071;28;20496;-56
2022/11/27 04:58:55;;;;;;;3.60;1.15;;;19.40;60.90;;;;;;5052795;28;20041;-56
2022/11/27 05:01:20;;;;;;;3.42;1.00;;;19.40;60.90;;;;;;5052782;28;20044;-56
2022/11/27 05:03:47;;;;;;;2.22;1.10;;;19.40;60.90;;;;;;5050952;28;20045;-56
2022/11/27 05:06:12;;;;;;;3.42;1.20;;;19.40;60.90;;;;;;5051879;28;20510;-56
2022/11/27 05:08:38;;;;;;;4.20;1.08;;;19.50;60.90;;;;;;5051932;28;20120;-56
2022/11/27 05:11:05;;;;;;;2.63;1.10;;;19.50;60.80;;;;;;5051473;28;20041;-56
2022/11/27 05:13:31;;;;;;;3.35;1.35;;;19.50;60.80;;;;;;5052257;28;20059;-56
2022/11/27 05:15:56;;;;;;;4.35;1.27;;;19.50;60.80;;;;;;5052740;28;20037;-56
2022/11/27 05:18:22;;;;;;;3.47;1.33;;;19.50;60.80;;;;;;5051834;28;20045;-56
2022/11/27 05:20:58;;;;;;;2.90;0.90;;;19.50;60.80;;;;;;5051964;28;20094;-56
2022/11/27 05:23:24;;;;;;;2.53;0.95;;;19.60;60.80;;;;;;5052612;28;20041;-56
2022/11/27 05:25:49;;;;;;;2.22;1.00;;;19.60;60.80;;;;;;5051384;28;20446;-56
2022/11/27 05:28:15;;;;;;;2.33;1.20;;;19.60;60.80;;;;;;5052163;28;20476;-56
2022/11/27 05:30:41;;;;;;;2.20;0.88;;;19.60;60.80;;;;;;5052132;28;20070;-56
2022/11/27 05:33:06;;;;;;;3.92;1.27;;;19.60;60.70;;;;;;5051792;28;20056;-56
2022/11/27 05:35:32;;;;;;;2.20;1.10;;;19.60;60.90;;;;;;5052238;28;20037;-57
2022/11/27 05:37:57;;;;;;;2.85;1.00;;;19.60;60.60;;;;;;5052454;28;20047;-57
2022/11/27 05:40:23;;;;;;;2.88;0.95;;;19.60;60.60;;;;;;5051437;28;20037;-57
2022/11/27 05:42:48;;;;;;;3.45;1.10;;;19.60;60.60;;;;;;5051523;28;20069;-56
2022/11/27 05:45:14;;;;;;;4.57;1.35;;;19.70;60.60;;;;;;5051860;28;20508;-56
2022/11/27 05:47:39;;;;;;;2.20;1.00;;;19.70;60.50;;;;;;5051184;28;20063;-56
2022/11/27 05:50:06;;;;;;;3.60;1.30;;;19.70;60.50;;;;;;5051963;28;20045;-56
2022/11/27 05:52:31;;;;;;;4.05;1.00;;;19.70;60.50;;;;;;5051621;28;20091;-56
2022/11/27 05:54:57;;;;;;;2.08;0.93;;;19.70;60.40;;;;;;5053517;28;20396;-56
2022/11/27 05:57:22;;;;;;;3.78;1.13;;;19.70;60.40;;;;;;5056512;28;20484;-57
2022/11/27 05:59:48;;;;;;;2.55;0.75;;;19.70;60.40;;;;;;5055169;28;20068;-57
2022/11/27 06:02:13;;;;;;;3.05;1.08;;;19.70;60.40;;;;;;5056317;28;20069;-57
2022/11/27 06:04:39;;;;;;;3.45;1.00;;;19.70;60.40;;;;;;5055379;28;20087;-56
2022/11/27 06:07:04;;;;;;;5.03;1.15;;;19.70;60.30;;;;;;5055369;28;20076;-56
2022/11/27 06:09:30;;;;;;;3.28;1.25;;;19.80;60.30;;;;;;5055693;28;20045;-56
2022/11/27 06:11:56;;;;;;;2.47;1.13;;;19.70;60.20;;;;;;5055899;28;20075;-56
2022/11/27 06:14:21;;;;;;;4.57;1.38;;;19.80;60.20;;;;;;5054937;28;20053;-56
2022/11/27 06:16:47;;;;;;;2.42;1.13;;;19.80;60.20;;;;;;5055738;28;20504;-56
2022/11/27 06:19:12;;;;;;;2.38;1.00;;;19.80;60.20;;;;;;5055870;28;20412;-56
2022/11/27 06:21:38;;;;;;;4.60;1.10;;;19.80;60.20;;;;;;5054904;28;20082;-56
2022/11/27 06:24:03;;;;;;;2.65;0.98;;;19.80;60.20;;;;;;5055821;28;20041;-56
2022/11/27 06:26:30;;;;;;;3.15;1.08;;;19.80;60.20;;;;;;5055587;28;20052;-56
2022/11/27 06:28:57;;;;;;;4.57;1.00;;;19.80;60.20;;;;;;5054932;28;20052;-56
2022/11/27 06:31:24;;;;;;;4.18;1.33;;;19.80;60.20;;;;;;5055856;28;20063;-56
2022/11/27 06:33:50;;;;;;;3.22;1.10;;;19.80;60.20;;;;;;5055528;28;20045;-56
2022/11/27 06:36:16;;;;;;;2.75;0.98;;;19.80;60.20;;;;;;5055047;28;20045;-56
2022/11/27 06:38:42;;;;;;;2.42;1.02;;;19.80;60.20;;;;;;5055216;28;20041;-56
2022/11/27 06:41:12;;;;;;;2.33;1.10;;;19.80;60.30;;;;;;5055725;28;20120;-56
2022/11/27 06:43:38;;;;;;;2.70;1.00;;;19.90;60.30;;;;;;5053935;28;20381;-56
2022/11/27 06:46:04;;;;;;;5.15;1.20;;;19.90;60.30;;;;;;5055559;28;20056;-56
2022/11/27 06:48:30;;;;;;;4.18;1.20;;;19.90;60.30;;;;;;5053742;28;20124;-57
2022/11/27 06:51:00;;;;;;;2.50;0.85;;;19.90;60.30;;;;;;5053164;28;20148;-57
2022/11/27 06:53:25;;;;;;;1.88;0.93;;;19.90;60.30;;;;;;5055316;28;20049;-57
2022/11/27 06:55:51;;;;;;;3.65;1.10;;;19.90;60.30;;;;;;5055201;28;20046;-56
2022/11/27 06:58:16;;;;;;;3.88;1.00;;;19.90;60.30;;;;;;5054285;28;20049;-56
2022/11/27 07:00:42;;;;;;;3.42;1.00;;;19.90;60.30;;;;;;5054908;28;20041;-62
2022/11/27 07:03:07;;;;;;;4.50;1.02;;;19.90;60.20;;;;;;5054301;28;20041;-56
2022/11/27 07:05:33;;;;;;;5.55;1.17;;;19.90;60.20;;;;;;5054196;28;20420;-56
2022/11/27 07:07:58;;;;;;;5.22;1.25;;;19.90;60.30;;;;;;5053696;28;20053;-56
2022/11/27 07:10:24;;;;;;;3.15;1.10;;;19.90;60.40;;;;;;5054173;28;20045;-56
2022/11/27 07:12:49;;;;;;;3.70;0.93;;;19.90;60.40;;;;;;5054248;28;20045;-56
2022/11/27 07:15:15;;;;;;;1.80;0.82;;;19.90;60.40;;;;;;5054473;28;20045;-55
2022/11/27 07:17:40;;;;;;;2.85;1.08;;;19.90;60.50;;;;;;5053915;28;20045;-56
2022/11/27 07:20:06;;;;;;;2.72;1.05;;;19.90;60.50;;;;;;5054744;28;20052;-56
2022/11/27 07:22:32;;;;;;;3.22;1.05;;;20.00;60.70;;;;;;5054222;28;20508;-56
2022/11/27 07:24:57;;;;;;;3.55;0.98;;;20.00;60.70;;;;;;5053438;28;20037;-55
2022/11/27 07:27:23;;;;;;;3.08;1.10;;;19.90;60.70;;;;;;5052864;28;20056;-55
2022/11/27 07:29:49;;;;;;;4.10;1.10;;;20.00;60.80;;;;;;5053954;28;20033;-55
2022/11/27 07:32:14;;;;;;;4.60;0.98;;;19.90;60.80;;;;;;5053869;28;20048;-56
2022/11/27 07:34:40;;;;;;;3.20;0.98;;;19.90;60.80;;;;;;5054132;28;20059;-56
2022/11/27 07:37:05;;;;;;;3.55;1.13;;;19.90;60.90;;;;;;5053074;28;20045;-56
2022/11/27 07:39:31;;;;;;;4.90;1.00;;;19.90;60.90;;;;;;5053515;28;20048;-56
2022/11/27 07:41:56;;;;;;;2.95;1.00;;;20.00;61.00;;;;;;5054280;28;20044;-56
2022/11/27 07:44:22;;;;;;;3.63;1.00;;;19.90;61.00;;;;;;5054464;28;20049;-56
2022/11/27 07:46:47;;;;;;;2.63;1.00;;;20.00;61.10;;;;;;5053058;28;20136;-56
2022/11/27 07:49:13;;;;;;;2.50;1.10;;;20.00;61.10;;;;;;5054343;28;20131;-56
2022/11/27 07:51:38;;;;;;;4.38;1.30;;;20.00;61.20;;;;;;5054017;28;20125;-56
2022/11/27 07:54:04;;;;;;;2.97;0.90;;;20.00;61.10;;;;;;5053197;28;20056;-55
2022/11/27 07:56:29;;;;;;;5.13;1.10;;;20.00;61.10;;;;;;5053628;28;20049;-56
2022/11/27 07:58:56;;;;;;;3.17;1.10;;;20.00;61.10;;;;;;5054136;28;20071;-55
2022/11/27 08:01:22;;;;;;;2.95;0.90;;;20.00;61.20;;;;;;5053503;28;20127;-56
2022/11/27 08:03:47;;;;;;;6.07;1.00;;;20.00;61.30;;;;;;5053132;28;20496;-56
2022/11/27 08:06:33;;;;;;;4.68;0.90;;;20.00;61.30;;;;;;5053579;28;20116;-56
2022/11/27 08:08:59;;;;;;;5.63;1.10;;;20.00;61.40;;;;;;5053344;28;20139;-56
2022/11/27 08:11:26;;;;;;;2.92;1.23;;;20.10;61.50;;;;;;5053848;28;20116;-57
2022/11/27 08:13:56;;;;;;;4.03;1.00;;;20.10;61.50;;;;;;5053119;28;20161;-57
2022/11/27 08:16:21;;;;;;;3.45;0.98;;;20.10;61.50;;;;;;5053551;28;20384;-56
2022/11/27 08:18:47;;;;;;;3.47;0.80;;;20.00;61.40;;;;;;5052935;28;20377;-57
2022/11/27 08:21:12;;;;;;;4.50;0.82;;;20.10;61.40;;;;;;5053042;28;20439;-56
2022/11/27 08:23:38;;;;;;;1.85;0.80;;;20.00;61.30;;;;;;5052574;28;20086;-56
2022/11/27 08:26:07;;;;;;;3.30;0.93;;;20.10;61.30;;;;;;5053429;28;20386;-56
2022/11/27 08:28:33;;;;;;;3.10;0.85;;;20.10;61.30;;;;;;5052140;28;20041;-56
2022/11/27 08:30:59;;;;;;;2.35;1.00;;;20.10;61.40;;;;;;5053565;28;20099;-56
2022/11/27 08:33:25;;;;;;;2.20;1.00;;;20.10;61.40;;;;;;5053376;28;20048;-56
2022/11/27 08:35:50;;;;;;;2.13;0.88;;;20.10;61.40;;;;;;5052512;28;20381;-57
2022/11/27 08:38:16;;;;;;;3.22;0.80;;;20.10;61.40;;;;;;5052959;28;20396;-56
2022/11/27 08:40:42;;;;;;;3.33;1.10;;;20.10;61.40;;;;;;5053017;28;20076;-56
2022/11/27 08:43:07;;;;;;;2.85;0.82;;;20.10;61.40;;;;;;5052103;28;20063;-56
2022/11/27 08:45:33;;;;;;;1.67;0.82;;;20.10;61.50;;;;;;5052873;28;20119;-56
2022/11/27 08:47:59;;;;;;;2.25;1.00;;;20.10;61.40;;;;;;5052987;28;20045;-56
2022/11/27 08:50:24;;;;;;;2.45;1.00;;;20.20;61.50;;;;;;5052626;28;20048;-56
2022/11/27 08:52:50;;;;;;;1.77;0.80;;;20.20;61.50;;;;;;5052581;28;20049;-56
2022/11/27 08:55:15;;;;;;;3.38;1.08;;;20.10;61.40;;;;;;5049936;28;20041;-57
2022/11/27 08:57:41;;;;;;;2.40;0.98;;;20.10;61.50;;;;;;5049684;28;20084;-56
2022/11/27 09:00:07;;;;;;;3.53;0.93;;;20.20;61.40;;;;;;5052231;28;20043;-56
2022/11/27 09:02:33;;;;;;;2.17;1.00;;;20.20;61.40;;;;;;5052186;28;20488;-56
2022/11/27 09:05:01;;;;;;;2.33;0.82;;;20.10;61.20;;;;;;5051741;28;20033;-56
2022/11/27 09:07:27;;;;;;;2.50;1.20;;;20.20;61.30;;;;;;5051571;28;20059;-56
2022/11/27 09:09:52;;;;;;;2.80;1.10;;;20.10;61.20;;;;;;5051670;28;20040;-56
2022/11/27 09:12:18;;;;;;;2.97;1.10;;;20.20;61.20;;;;;;5052606;28;20231;-56
2022/11/27 09:14:43;;;;;;;4.22;1.05;;;20.10;61.10;;;;;;5051948;28;20052;-56
2022/11/27 09:17:09;;;;;;;2.80;1.00;;;20.10;61.00;;;;;;5051812;28;20135;-56
2022/11/27 09:19:34;;;;;;;4.40;1.00;;;20.10;61.00;;;;;;5052403;28;20075;-56
2022/11/27 09:22:00;;;;;;;2.72;0.88;;;20.10;61.00;;;;;;5052190;28;20076;-56
2022/11/27 09:24:26;;;;;;;2.70;0.73;;;20.10;61.00;;;;;;5052009;28;20037;-56
2022/11/27 09:26:51;;;;;;;3.92;1.00;;;20.10;61.00;;;;;;5044562;28;20041;-56
2022/11/27 09:29:17;;;;;;;4.28;1.10;;;20.10;60.90;;;;;;5031644;28;20049;-56
2022/11/27 09:31:42;;;;;;;4.07;1.05;;;20.10;60.80;;;;;;5030800;28;20072;-56
2022/11/27 09:34:08;;;;;;;1.35;0.80;;;20.10;60.80;;;;;;5031852;28;20044;-56
2022/11/27 09:36:33;;;;;;;2.63;0.90;;;20.10;60.80;;;;;;5033666;28;20068;-56
2022/11/27 09:38:59;;;;;;;2.95;0.93;;;20.10;60.70;;;;;;5029620;28;20042;-55
2022/11/27 09:41:43;;;;;;;2.25;0.77;;;20.10;60.70;;;;;;5030226;28;20046;-56
2022/11/27 09:44:17;;;;;;;3.85;0.95;;;20.10;60.60;;;;;;5035795;28;20550;-57
2022/11/27 09:46:43;;;;;;;6.45;1.05;;;20.10;60.60;;;;;;5040512;28;20396;-57
2022/11/27 09:49:16;;;;;;;4.25;1.08;;;20.10;60.70;;;;;;5031158;28;20045;-55
2022/11/27 09:52:02;;;;;;;3.15;1.10;;;20.10;61.00;;;;;;5046674;28;20116;-58
2022/11/27 09:54:29;;;;;;;3.28;0.93;;;20.10;61.00;;;;;;5031036;28;20086;-56
2022/11/27 09:56:55;;;;;;;3.07;0.80;;;20.10;61.60;;;;;;5051035;28;20041;-56
2022/11/27 09:59:22;;;;;;;3.88;1.10;;;20.10;61.00;;;;;;5048346;28;20464;-56
2022/11/27 10:01:48;;;;;;;4.23;1.13;;;20.20;61.10;;;;;;5049668;28;20493;-56
2022/11/27 10:04:17;;;;;;;3.28;1.00;;;20.10;61.00;;;;;;5053039;28;20049;-57
2022/11/27 10:07:11;;;;;;;5.47;1.05;;;20.20;60.90;;;;;;5050534;28;20480;-56
2022/11/27 10:09:54;;;;;;;8.23;1.20;;;20.20;60.90;;;;;;5039268;28;20056;-57
2022/11/27 10:12:35;;;;;;;2.47;1.10;;;20.20;61.10;;;;;;5051563;28;20076;-57
2022/11/27 10:15:12;;;;;;;7.07;1.50;;;20.20;61.10;;;;;;5050661;28;20071;-61
2022/11/27 10:18:08;;;;;;;4.93;1.03;;;20.10;61.00;;;;;;5049181;28;20120;-57
2022/11/27 10:20:43;;;;;;;4.70;1.33;;;20.20;61.00;;;;;;5044314;28;20318;-56
2022/11/27 10:23:30;;;;;;;5.43;1.33;;;20.10;61.10;;;;;;5050082;28;20484;-57
2022/11/27 10:26:03;;;;;;;5.60;2.08;;;20.20;61.10;;;;;;5051192;28;20045;-57
2022/11/27 10:28:40;;;;;;;4.15;1.00;;;20.20;61.20;;;;;;5032460;28;20377;-56
2022/11/27 10:31:27;;;;;;;4.18;1.30;;;20.20;61.40;;;;;;5051405;28;20073;-56
2022/11/27 10:33:54;;;;;;;4.97;1.35;;;20.20;61.50;;;;;;5038454;28;20052;-56
2022/11/27 10:36:35;;;;;;;5.00;1.20;;;20.30;61.60;;;;;;5050306;28;20622;-58
2022/11/27 10:39:01;;;;;;;3.63;1.13;;;20.20;61.70;;;;;;5049601;28;20045;-58
2022/11/27 10:41:31;;;;;;;4.97;1.23;;;20.20;61.70;;;;;;5050790;28;20052;-56
2022/11/27 10:43:57;;;;;;;5.28;1.17;;;20.30;62.40;;;;;;5053902;28;20508;-56
2022/11/27 10:46:28;;;;;;;5.80;1.33;;;20.20;61.70;;;;;;5070080;28;20059;-56
2022/11/27 10:48:54;;;;;;;4.60;1.20;;;20.30;61.80;;;;;;5044069;28;20045;-57
2022/11/27 10:51:33;;;;;;;2.63;1.00;;;20.30;61.70;;;;;;5034535;28;20413;-56
2022/11/27 10:53:59;;;;;;;3.28;1.13;;;20.30;61.70;;;;;;5033261;28;20033;-57
2022/11/27 10:56:41;;;;;;;3.75;1.10;;;20.30;61.70;;;;;;5032886;28;20683;-57
2022/11/27 10:59:20;;;;;;;3.22;1.35;;;20.30;61.70;;;;;;5034200;28;20046;-57
2022/11/27 11:01:49;;;;;;;7.50;1.35;;;20.30;61.60;;;;;;5043913;28;20469;-56
2022/11/27 11:04:19;;;;;;;4.60;0.95;;;20.30;61.70;;;;;;5049688;28;20130;-56
2022/11/27 11:06:46;;;;;;;5.22;1.45;;;20.30;61.60;;;;;;5053063;28;20064;-56
2022/11/27 11:09:15;;;;;;;3.35;0.95;;;20.30;61.60;;;;;;5054555;28;20546;-56
2022/11/27 11:11:41;;;;;;;4.82;1.13;;;20.30;61.60;;;;;;5052568;28;20060;-57
2022/11/27 11:14:21;;;;;;;1.73;1.00;;;20.30;61.60;;;;;;5054050;28;20480;-56
2022/11/27 11:16:47;;;;;;;3.20;1.17;;;20.30;61.60;;;;;;5040304;28;20041;-56
2022/11/27 11:19:29;;;;;;;4.47;1.30;;;20.30;61.60;;;;;;5054066;28;20048;-55
2022/11/27 11:21:55;;;;;;;2.83;0.93;;;20.20;61.50;;;;;;5054060;28;20045;-56
2022/11/27 11:24:23;;;;;;;2.58;1.02;;;20.30;61.60;;;;;;5053153;28;20041;-56
2022/11/27 11:26:58;;;;;;;;;;;20.30;61.60;;;;;;5053576;28;20492;-55
2022/11/27 11:29:26;;;;;;;5.95;1.27;;;20.20;61.60;;;;;;5053926;28;19921;-56
2022/11/27 11:31:53;;;;;;;4.22;1.33;;;20.30;61.60;;;;;;5052940;28;20052;-55
2022/11/27 11:34:25;;;;;;;4.80;1.23;;;20.20;61.60;;;;;;5052781;28;20068;-56
2022/11/27 11:37:04;;;;;;;4.40;1.40;;;20.20;61.60;;;;;;5052344;28;20496;-55
2022/11/27 11:39:38;;;;;;;3.05;1.13;;;20.20;61.50;;;;;;5043846;28;20045;-56
2022/11/27 11:42:09;;;;;;;6.05;1.30;;;20.20;61.60;;;;;;5032150;28;20072;-56
2022/11/27 11:44:36;;;;;;;3.17;1.35;;;20.20;62.20;;;;;;5033003;28;20049;-56
2022/11/27 11:47:02;;;;;;;2.17;1.00;;;20.20;61.50;;;;;;5033775;28;20033;-56
2022/11/27 11:49:28;;;;;;;2.47;1.20;;;20.20;61.50;;;;;;5033479;28;20501;-56
2022/11/27 11:52:20;;;;;;;1.80;1.02;;;20.20;61.40;;;;;;5048638;28;20057;-55
2022/11/27 11:55:10;;;;;;;4.72;1.40;;;20.20;61.30;;;;;;5048730;28;20536;-56
2022/11/27 11:57:55;;;;;;;3.42;1.30;;;20.20;61.20;;;;;;5033853;28;20466;-56
2022/11/27 12:00:22;;;;;;;2.88;1.10;;;20.10;61.20;;;;;;5031692;28;20462;-56
2022/11/27 12:03:16;;;;;;;2.50;1.25;;;20.10;61.80;;;;;;5049353;28;20049;-56
2022/11/27 12:06:00;;;;;;;2.70;1.40;;;20.20;61.20;;;;;;5046657;28;20053;-56
2022/11/27 12:08:43;;;;;;;7.13;1.40;;;20.10;61.10;;;;;;5065054;28;20049;-56
2022/11/27 12:11:17;;;;;;;4.20;1.67;;;20.10;61.00;;;;;;5052162;28;20045;-56
2022/11/27 12:14:01;;;;;;;6.32;1.27;;;20.10;61.00;;;;;;5050995;28;20480;-56
2022/11/27 12:16:39;;;;;;;5.13;1.42;;;20.10;61.10;;;;;;5053395;28;20051;-55
2022/11/27 12:19:32;;;;;;;3.10;1.30;;;20.10;61.20;;;;;;5052503;28;20048;-56
2022/11/27 12:22:19;;;;;;;4.90;1.33;;;20.10;61.30;;;;;;5052728;28;20068;-56
2022/11/27 12:25:01;;;;;;;3.67;1.23;;;20.00;61.30;;;;;;5052098;28;20116;-57
2022/11/27 12:28:06;;;;;;;4.80;1.60;;;20.10;61.40;;;;;;5050864;28;20315;-56
2022/11/27 12:30:58;;;;;;;5.30;1.35;;;20.10;61.40;;;;;;5052899;28;20132;-57
2022/11/27 12:33:52;;;;;;;5.05;1.40;;;20.10;61.50;;;;;;5052177;28;20045;-57
2022/11/27 12:36:24;;;;;;;2.88;1.23;;;20.10;61.50;;;;;;5052414;28;20052;-57
2022/11/27 12:39:01;;;;;;;3.63;1.50;;;20.10;61.50;;;;;;5052750;28;20052;-57
2022/11/27 12:41:38;;;;;;;4.13;1.30;;;20.10;61.50;;;;;;5051964;28;20045;-57
2022/11/27 12:44:10;;;;;;;2.33;1.08;;;20.10;61.50;;;;;;5051316;28;20053;-57
2022/11/27 12:47:02;;;;;;;3.05;1.10;;;20.10;61.60;;;;;;5051508;28;20053;-57
2022/11/27 12:49:41;;;;;;;4.32;1.40;;;20.10;61.50;;;;;;5051679;28;20136;-57
2022/11/27 12:52:14;;;;;;;5.40;1.58;;;20.10;61.60;;;;;;5049585;28;20049;-57
2022/11/27 12:54:52;;;;;;;5.82;1.52;;;20.10;61.40;;;;;;5066641;28;20041;-57
2022/11/27 12:57:24;;;;;;;3.97;1.42;;;20.10;61.50;;;;;;5052644;28;20044;-57
2022/11/27 12:59:57;;;;;;;3.72;1.67;;;20.10;61.50;;;;;;5050551;28;20056;-56
2022/11/27 13:02:36;;;;;;;2.35;1.25;;;20.20;61.50;;;;;;5050717;28;20045;-57